<?xml version="1.0" encoding="UTF-8" standalone="no" ?>
<gpx xmlns="http://www.topografix.com/GPX/1/1" xmlns:xsi="http://www.w3.org/2001/XMLSchema-instance" xsi:schemaLocation="http://www.topografix.com/GPX/1/1 http://www.topografix.com/GPX/1/1/gpx.xsd" version="1.1" creator="VisuGPX - https://www.visugpx.com">
  <metadata>
    <name>Balade ,bois d'Azet.</name>
  </metadata>
  <trk>
    <name><![CDATA[Balade ,bois d'Azet.]]></name>
    <trkseg>
      <trkpt lat="43.19944" lon="-0.09178">
        <ele>438</ele>
        <time>2022-01-12T12:57:54Z</time>
      </trkpt>
      <trkpt lat="43.1997" lon="-0.09181">
        <ele>445</ele>
        <time>2022-01-12T12:58:03Z</time>
      </trkpt>
      <trkpt lat="43.19971" lon="-0.0915">
        <ele>439</ele>
        <time>2022-01-12T13:03:45Z</time>
      </trkpt>
      <trkpt lat="43.19972" lon="-0.09118">
        <ele>438</ele>
        <time>2022-01-12T13:04:11Z</time>
      </trkpt>
      <trkpt lat="43.19971" lon="-0.09087">
        <ele>441</ele>
        <time>2022-01-12T13:04:30Z</time>
      </trkpt>
      <trkpt lat="43.19978" lon="-0.09058">
        <ele>444</ele>
        <time>2022-01-12T13:04:44Z</time>
      </trkpt>
      <trkpt lat="43.1998" lon="-0.09025">
        <ele>445</ele>
        <time>2022-01-12T13:05:09Z</time>
      </trkpt>
      <trkpt lat="43.19985" lon="-0.08995">
        <ele>444</ele>
        <time>2022-01-12T13:05:28Z</time>
      </trkpt>
      <trkpt lat="43.19988" lon="-0.08963">
        <ele>446</ele>
        <time>2022-01-12T13:05:48Z</time>
      </trkpt>
      <trkpt lat="43.19988" lon="-0.08932">
        <ele>445</ele>
        <time>2022-01-12T13:06:03Z</time>
      </trkpt>
      <trkpt lat="43.19992" lon="-0.08901">
        <ele>440</ele>
        <time>2022-01-12T13:06:24Z</time>
      </trkpt>
      <trkpt lat="43.19994" lon="-0.08869">
        <ele>437</ele>
        <time>2022-01-12T13:06:43Z</time>
      </trkpt>
      <trkpt lat="43.19996" lon="-0.08836">
        <ele>437</ele>
        <time>2022-01-12T13:06:59Z</time>
      </trkpt>
      <trkpt lat="43.2" lon="-0.08805">
        <ele>440</ele>
        <time>2022-01-12T13:07:16Z</time>
      </trkpt>
      <trkpt lat="43.20001" lon="-0.08773">
        <ele>443</ele>
        <time>2022-01-12T13:07:33Z</time>
      </trkpt>
      <trkpt lat="43.20003" lon="-0.08743">
        <ele>438</ele>
        <time>2022-01-12T13:07:52Z</time>
      </trkpt>
      <trkpt lat="43.20006" lon="-0.08711">
        <ele>441</ele>
        <time>2022-01-12T13:08:09Z</time>
      </trkpt>
      <trkpt lat="43.20008" lon="-0.08679">
        <ele>437</ele>
        <time>2022-01-12T13:08:27Z</time>
      </trkpt>
      <trkpt lat="43.2001" lon="-0.08647">
        <ele>439</ele>
        <time>2022-01-12T13:08:47Z</time>
      </trkpt>
      <trkpt lat="43.20015" lon="-0.08614">
        <ele>440</ele>
        <time>2022-01-12T13:09:07Z</time>
      </trkpt>
      <trkpt lat="43.20017" lon="-0.08583">
        <ele>442</ele>
        <time>2022-01-12T13:09:24Z</time>
      </trkpt>
      <trkpt lat="43.2002" lon="-0.08552">
        <ele>440</ele>
        <time>2022-01-12T13:09:43Z</time>
      </trkpt>
      <trkpt lat="43.20022" lon="-0.08521">
        <ele>435</ele>
        <time>2022-01-12T13:10:03Z</time>
      </trkpt>
      <trkpt lat="43.20023" lon="-0.08488">
        <ele>439</ele>
        <time>2022-01-12T13:10:21Z</time>
      </trkpt>
      <trkpt lat="43.20028" lon="-0.08458">
        <ele>441</ele>
        <time>2022-01-12T13:10:42Z</time>
      </trkpt>
      <trkpt lat="43.20031" lon="-0.08426">
        <ele>442</ele>
        <time>2022-01-12T13:11:00Z</time>
      </trkpt>
      <trkpt lat="43.20033" lon="-0.08395">
        <ele>445</ele>
        <time>2022-01-12T13:11:20Z</time>
      </trkpt>
      <trkpt lat="43.20035" lon="-0.08363">
        <ele>445</ele>
        <time>2022-01-12T13:11:37Z</time>
      </trkpt>
      <trkpt lat="43.20035" lon="-0.08332">
        <ele>448</ele>
        <time>2022-01-12T13:11:56Z</time>
      </trkpt>
      <trkpt lat="43.2004" lon="-0.083">
        <ele>446</ele>
        <time>2022-01-12T13:12:15Z</time>
      </trkpt>
      <trkpt lat="43.20042" lon="-0.08268">
        <ele>442</ele>
        <time>2022-01-12T13:12:36Z</time>
      </trkpt>
      <trkpt lat="43.20044" lon="-0.08237">
        <ele>445</ele>
        <time>2022-01-12T13:12:53Z</time>
      </trkpt>
      <trkpt lat="43.20049" lon="-0.08206">
        <ele>447</ele>
        <time>2022-01-12T13:13:11Z</time>
      </trkpt>
      <trkpt lat="43.20047" lon="-0.08174">
        <ele>447</ele>
        <time>2022-01-12T13:15:40Z</time>
      </trkpt>
      <trkpt lat="43.20052" lon="-0.08143">
        <ele>445</ele>
        <time>2022-01-12T13:16:00Z</time>
      </trkpt>
      <trkpt lat="43.20054" lon="-0.08111">
        <ele>442</ele>
        <time>2022-01-12T13:16:20Z</time>
      </trkpt>
      <trkpt lat="43.20053" lon="-0.08078">
        <ele>445</ele>
        <time>2022-01-12T13:16:42Z</time>
      </trkpt>
      <trkpt lat="43.20055" lon="-0.08046">
        <ele>445</ele>
        <time>2022-01-12T13:16:58Z</time>
      </trkpt>
      <trkpt lat="43.20053" lon="-0.08015">
        <ele>442</ele>
        <time>2022-01-12T13:17:17Z</time>
      </trkpt>
      <trkpt lat="43.20057" lon="-0.07984">
        <ele>445</ele>
        <time>2022-01-12T13:17:33Z</time>
      </trkpt>
      <trkpt lat="43.2006" lon="-0.07952">
        <ele>442</ele>
        <time>2022-01-12T13:17:53Z</time>
      </trkpt>
      <trkpt lat="43.2006" lon="-0.0792">
        <ele>437</ele>
        <time>2022-01-12T13:18:10Z</time>
      </trkpt>
      <trkpt lat="43.20061" lon="-0.07888">
        <ele>440</ele>
        <time>2022-01-12T13:18:32Z</time>
      </trkpt>
      <trkpt lat="43.20066" lon="-0.07857">
        <ele>444</ele>
        <time>2022-01-12T13:18:49Z</time>
      </trkpt>
      <trkpt lat="43.2007" lon="-0.07826">
        <ele>442</ele>
        <time>2022-01-12T13:19:08Z</time>
      </trkpt>
      <trkpt lat="43.20069" lon="-0.07794">
        <ele>445</ele>
        <time>2022-01-12T13:19:26Z</time>
      </trkpt>
      <trkpt lat="43.20069" lon="-0.07763">
        <ele>446</ele>
        <time>2022-01-12T13:19:48Z</time>
      </trkpt>
      <trkpt lat="43.20074" lon="-0.07733">
        <ele>450</ele>
        <time>2022-01-12T13:20:06Z</time>
      </trkpt>
      <trkpt lat="43.20079" lon="-0.07702">
        <ele>447</ele>
        <time>2022-01-12T13:20:23Z</time>
      </trkpt>
      <trkpt lat="43.20078" lon="-0.0767">
        <ele>444</ele>
        <time>2022-01-12T13:20:41Z</time>
      </trkpt>
      <trkpt lat="43.20079" lon="-0.07639">
        <ele>447</ele>
        <time>2022-01-12T13:21:01Z</time>
      </trkpt>
      <trkpt lat="43.20082" lon="-0.07607">
        <ele>448</ele>
        <time>2022-01-12T13:21:16Z</time>
      </trkpt>
      <trkpt lat="43.20082" lon="-0.07576">
        <ele>444</ele>
        <time>2022-01-12T13:21:36Z</time>
      </trkpt>
      <trkpt lat="43.20087" lon="-0.07545">
        <ele>443</ele>
        <time>2022-01-12T13:21:54Z</time>
      </trkpt>
      <trkpt lat="43.20086" lon="-0.07513">
        <ele>442</ele>
        <time>2022-01-12T13:22:43Z</time>
      </trkpt>
      <trkpt lat="43.20109" lon="-0.07511">
        <ele>445</ele>
        <time>2022-01-12T13:29:42Z</time>
      </trkpt>
      <trkpt lat="43.20132" lon="-0.07507">
        <ele>449</ele>
        <time>2022-01-12T13:30:14Z</time>
      </trkpt>
      <trkpt lat="43.20155" lon="-0.07504">
        <ele>455</ele>
        <time>2022-01-12T13:30:37Z</time>
      </trkpt>
      <trkpt lat="43.20178" lon="-0.07505">
        <ele>452</ele>
        <time>2022-01-12T13:30:54Z</time>
      </trkpt>
      <trkpt lat="43.20201" lon="-0.0751">
        <ele>452</ele>
        <time>2022-01-12T13:31:16Z</time>
      </trkpt>
      <trkpt lat="43.20223" lon="-0.07507">
        <ele>452</ele>
        <time>2022-01-12T13:31:32Z</time>
      </trkpt>
      <trkpt lat="43.20246" lon="-0.0751">
        <ele>451</ele>
        <time>2022-01-12T13:31:46Z</time>
      </trkpt>
      <trkpt lat="43.20269" lon="-0.07508">
        <ele>454</ele>
        <time>2022-01-12T13:32:06Z</time>
      </trkpt>
      <trkpt lat="43.20291" lon="-0.07512">
        <ele>456</ele>
        <time>2022-01-12T13:32:24Z</time>
      </trkpt>
      <trkpt lat="43.20313" lon="-0.07518">
        <ele>453</ele>
        <time>2022-01-12T13:32:41Z</time>
      </trkpt>
      <trkpt lat="43.20336" lon="-0.07512">
        <ele>450</ele>
        <time>2022-01-12T13:33:08Z</time>
      </trkpt>
      <trkpt lat="43.20359" lon="-0.07517">
        <ele>455</ele>
        <time>2022-01-12T13:33:26Z</time>
      </trkpt>
      <trkpt lat="43.20382" lon="-0.07515">
        <ele>453</ele>
        <time>2022-01-12T13:33:40Z</time>
      </trkpt>
      <trkpt lat="43.20405" lon="-0.07524">
        <ele>454</ele>
        <time>2022-01-12T13:34:08Z</time>
      </trkpt>
      <trkpt lat="43.20428" lon="-0.07529">
        <ele>442</ele>
        <time>2022-01-12T13:34:34Z</time>
      </trkpt>
      <trkpt lat="43.20451" lon="-0.07525">
        <ele>443</ele>
        <time>2022-01-12T13:34:51Z</time>
      </trkpt>
      <trkpt lat="43.20475" lon="-0.07527">
        <ele>444</ele>
        <time>2022-01-12T13:35:14Z</time>
      </trkpt>
      <trkpt lat="43.20499" lon="-0.07528">
        <ele>448</ele>
        <time>2022-01-12T13:35:33Z</time>
      </trkpt>
      <trkpt lat="43.20522" lon="-0.0753">
        <ele>447</ele>
        <time>2022-01-12T13:35:53Z</time>
      </trkpt>
      <trkpt lat="43.20545" lon="-0.07523">
        <ele>449</ele>
        <time>2022-01-12T13:36:12Z</time>
      </trkpt>
      <trkpt lat="43.20567" lon="-0.07525">
        <ele>448</ele>
        <time>2022-01-12T13:36:40Z</time>
      </trkpt>
      <trkpt lat="43.20591" lon="-0.07526">
        <ele>444</ele>
        <time>2022-01-12T13:36:59Z</time>
      </trkpt>
      <trkpt lat="43.20615" lon="-0.07526">
        <ele>447</ele>
        <time>2022-01-12T13:37:19Z</time>
      </trkpt>
      <trkpt lat="43.20638" lon="-0.07532">
        <ele>448</ele>
        <time>2022-01-12T13:37:41Z</time>
      </trkpt>
      <trkpt lat="43.20662" lon="-0.07535">
        <ele>444</ele>
        <time>2022-01-12T13:38:01Z</time>
      </trkpt>
      <trkpt lat="43.20684" lon="-0.07538">
        <ele>447</ele>
        <time>2022-01-12T13:38:21Z</time>
      </trkpt>
      <trkpt lat="43.20707" lon="-0.07544">
        <ele>449</ele>
        <time>2022-01-12T13:38:36Z</time>
      </trkpt>
      <trkpt lat="43.20724" lon="-0.07564">
        <ele>433</ele>
        <time>2022-01-12T13:39:52Z</time>
      </trkpt>
      <trkpt lat="43.20741" lon="-0.07544">
        <ele>439</ele>
        <time>2022-01-12T13:43:00Z</time>
      </trkpt>
      <trkpt lat="43.20765" lon="-0.07544">
        <ele>441</ele>
        <time>2022-01-12T13:43:20Z</time>
      </trkpt>
      <trkpt lat="43.20788" lon="-0.07548">
        <ele>436</ele>
        <time>2022-01-12T13:43:46Z</time>
      </trkpt>
      <trkpt lat="43.20811" lon="-0.07547">
        <ele>432</ele>
        <time>2022-01-12T13:44:12Z</time>
      </trkpt>
      <trkpt lat="43.20833" lon="-0.07545">
        <ele>436</ele>
        <time>2022-01-12T13:44:35Z</time>
      </trkpt>
      <trkpt lat="43.20856" lon="-0.07547">
        <ele>441</ele>
        <time>2022-01-12T13:44:56Z</time>
      </trkpt>
      <trkpt lat="43.20879" lon="-0.07546">
        <ele>439</ele>
        <time>2022-01-12T13:45:15Z</time>
      </trkpt>
      <trkpt lat="43.20902" lon="-0.07551">
        <ele>433</ele>
        <time>2022-01-12T13:45:36Z</time>
      </trkpt>
      <trkpt lat="43.20925" lon="-0.07545">
        <ele>434</ele>
        <time>2022-01-12T13:46:04Z</time>
      </trkpt>
      <trkpt lat="43.20947" lon="-0.07541">
        <ele>438</ele>
        <time>2022-01-12T13:46:20Z</time>
      </trkpt>
      <trkpt lat="43.20971" lon="-0.07538">
        <ele>435</ele>
        <time>2022-01-12T13:46:45Z</time>
      </trkpt>
      <trkpt lat="43.20994" lon="-0.0754">
        <ele>435</ele>
        <time>2022-01-12T13:47:12Z</time>
      </trkpt>
      <trkpt lat="43.21017" lon="-0.0754">
        <ele>439</ele>
        <time>2022-01-12T13:47:36Z</time>
      </trkpt>
      <trkpt lat="43.21041" lon="-0.07542">
        <ele>437</ele>
        <time>2022-01-12T13:47:52Z</time>
      </trkpt>
      <trkpt lat="43.21061" lon="-0.07526">
        <ele>440</ele>
        <time>2022-01-12T13:48:13Z</time>
      </trkpt>
      <trkpt lat="43.21084" lon="-0.0753">
        <ele>441</ele>
        <time>2022-01-12T13:48:35Z</time>
      </trkpt>
      <trkpt lat="43.21108" lon="-0.07532">
        <ele>438</ele>
        <time>2022-01-12T13:48:54Z</time>
      </trkpt>
      <trkpt lat="43.21131" lon="-0.07534">
        <ele>437</ele>
        <time>2022-01-12T13:49:15Z</time>
      </trkpt>
      <trkpt lat="43.21155" lon="-0.07536">
        <ele>437</ele>
        <time>2022-01-12T13:49:33Z</time>
      </trkpt>
      <trkpt lat="43.21177" lon="-0.07544">
        <ele>443</ele>
        <time>2022-01-12T13:49:55Z</time>
      </trkpt>
      <trkpt lat="43.212" lon="-0.07545">
        <ele>442</ele>
        <time>2022-01-12T13:50:14Z</time>
      </trkpt>
      <trkpt lat="43.21221" lon="-0.0756">
        <ele>440</ele>
        <time>2022-01-12T13:50:33Z</time>
      </trkpt>
      <trkpt lat="43.21243" lon="-0.07569">
        <ele>439</ele>
        <time>2022-01-12T13:50:49Z</time>
      </trkpt>
      <trkpt lat="43.21266" lon="-0.07566">
        <ele>417</ele>
        <time>2022-01-12T13:51:12Z</time>
      </trkpt>
      <trkpt lat="43.21289" lon="-0.0757">
        <ele>428</ele>
        <time>2022-01-12T13:51:30Z</time>
      </trkpt>
      <trkpt lat="43.21312" lon="-0.07578">
        <ele>432</ele>
        <time>2022-01-12T13:51:50Z</time>
      </trkpt>
      <trkpt lat="43.21336" lon="-0.07576">
        <ele>427</ele>
        <time>2022-01-12T13:52:08Z</time>
      </trkpt>
      <trkpt lat="43.21359" lon="-0.07581">
        <ele>429</ele>
        <time>2022-01-12T13:52:32Z</time>
      </trkpt>
      <trkpt lat="43.21381" lon="-0.07583">
        <ele>437</ele>
        <time>2022-01-12T13:52:53Z</time>
      </trkpt>
      <trkpt lat="43.21404" lon="-0.07579">
        <ele>437</ele>
        <time>2022-01-12T13:53:17Z</time>
      </trkpt>
      <trkpt lat="43.21427" lon="-0.07583">
        <ele>442</ele>
        <time>2022-01-12T13:53:34Z</time>
      </trkpt>
      <trkpt lat="43.21442" lon="-0.07606">
        <ele>442</ele>
        <time>2022-01-12T13:53:51Z</time>
      </trkpt>
      <trkpt lat="43.21455" lon="-0.07633">
        <ele>440</ele>
        <time>2022-01-12T13:54:06Z</time>
      </trkpt>
      <trkpt lat="43.21469" lon="-0.07659">
        <ele>431</ele>
        <time>2022-01-12T13:54:29Z</time>
      </trkpt>
      <trkpt lat="43.21477" lon="-0.07688">
        <ele>428</ele>
        <time>2022-01-12T13:54:52Z</time>
      </trkpt>
      <trkpt lat="43.21485" lon="-0.07717">
        <ele>435</ele>
        <time>2022-01-12T13:55:07Z</time>
      </trkpt>
      <trkpt lat="43.21491" lon="-0.07748">
        <ele>445</ele>
        <time>2022-01-12T13:55:34Z</time>
      </trkpt>
      <trkpt lat="43.21492" lon="-0.07781">
        <ele>447</ele>
        <time>2022-01-12T13:55:56Z</time>
      </trkpt>
      <trkpt lat="43.21496" lon="-0.07811">
        <ele>441</ele>
        <time>2022-01-12T13:56:14Z</time>
      </trkpt>
      <trkpt lat="43.21502" lon="-0.07841">
        <ele>434</ele>
        <time>2022-01-12T13:56:38Z</time>
      </trkpt>
      <trkpt lat="43.21513" lon="-0.07868">
        <ele>438</ele>
        <time>2022-01-12T13:57:00Z</time>
      </trkpt>
      <trkpt lat="43.21494" lon="-0.07885">
        <ele>436</ele>
        <time>2022-01-12T13:58:48Z</time>
      </trkpt>
      <trkpt lat="43.21472" lon="-0.07891">
        <ele>435</ele>
        <time>2022-01-12T13:59:07Z</time>
      </trkpt>
      <trkpt lat="43.21449" lon="-0.079">
        <ele>435</ele>
        <time>2022-01-12T13:59:22Z</time>
      </trkpt>
      <trkpt lat="43.21427" lon="-0.07912">
        <ele>438</ele>
        <time>2022-01-12T13:59:40Z</time>
      </trkpt>
      <trkpt lat="43.21406" lon="-0.07923">
        <ele>442</ele>
        <time>2022-01-12T13:59:58Z</time>
      </trkpt>
      <trkpt lat="43.21383" lon="-0.07925">
        <ele>438</ele>
        <time>2022-01-12T14:00:23Z</time>
      </trkpt>
      <trkpt lat="43.2136" lon="-0.07928">
        <ele>438</ele>
        <time>2022-01-12T14:00:44Z</time>
      </trkpt>
      <trkpt lat="43.21338" lon="-0.07932">
        <ele>433</ele>
        <time>2022-01-12T14:01:13Z</time>
      </trkpt>
      <trkpt lat="43.21315" lon="-0.07938">
        <ele>430</ele>
        <time>2022-01-12T14:01:38Z</time>
      </trkpt>
      <trkpt lat="43.21293" lon="-0.07948">
        <ele>431</ele>
        <time>2022-01-12T14:02:08Z</time>
      </trkpt>
      <trkpt lat="43.21271" lon="-0.07956">
        <ele>430</ele>
        <time>2022-01-12T14:02:26Z</time>
      </trkpt>
      <trkpt lat="43.21249" lon="-0.07962">
        <ele>432</ele>
        <time>2022-01-12T14:02:52Z</time>
      </trkpt>
      <trkpt lat="43.21226" lon="-0.07968">
        <ele>436</ele>
        <time>2022-01-12T14:03:09Z</time>
      </trkpt>
      <trkpt lat="43.21204" lon="-0.07974">
        <ele>435</ele>
        <time>2022-01-12T14:03:28Z</time>
      </trkpt>
      <trkpt lat="43.21181" lon="-0.07984">
        <ele>437</ele>
        <time>2022-01-12T14:03:46Z</time>
      </trkpt>
      <trkpt lat="43.21158" lon="-0.07985">
        <ele>436</ele>
        <time>2022-01-12T14:04:05Z</time>
      </trkpt>
      <trkpt lat="43.21137" lon="-0.07997">
        <ele>437</ele>
        <time>2022-01-12T14:04:25Z</time>
      </trkpt>
      <trkpt lat="43.21115" lon="-0.08006">
        <ele>435</ele>
        <time>2022-01-12T14:04:45Z</time>
      </trkpt>
      <trkpt lat="43.21095" lon="-0.08019">
        <ele>442</ele>
        <time>2022-01-12T14:05:00Z</time>
      </trkpt>
      <trkpt lat="43.21074" lon="-0.08032">
        <ele>447</ele>
        <time>2022-01-12T14:05:21Z</time>
      </trkpt>
      <trkpt lat="43.21051" lon="-0.08042">
        <ele>446</ele>
        <time>2022-01-12T14:05:39Z</time>
      </trkpt>
      <trkpt lat="43.21029" lon="-0.0805">
        <ele>442</ele>
        <time>2022-01-12T14:06:08Z</time>
      </trkpt>
      <trkpt lat="43.21006" lon="-0.08057">
        <ele>441</ele>
        <time>2022-01-12T14:06:27Z</time>
      </trkpt>
      <trkpt lat="43.20983" lon="-0.08063">
        <ele>440</ele>
        <time>2022-01-12T14:06:45Z</time>
      </trkpt>
      <trkpt lat="43.20962" lon="-0.08077">
        <ele>444</ele>
        <time>2022-01-12T14:07:03Z</time>
      </trkpt>
      <trkpt lat="43.20941" lon="-0.08063">
        <ele>438</ele>
        <time>2022-01-12T14:07:25Z</time>
      </trkpt>
      <trkpt lat="43.20923" lon="-0.08083">
        <ele>444</ele>
        <time>2022-01-12T14:11:06Z</time>
      </trkpt>
      <trkpt lat="43.209" lon="-0.08092">
        <ele>444</ele>
        <time>2022-01-12T14:11:28Z</time>
      </trkpt>
      <trkpt lat="43.20877" lon="-0.0809">
        <ele>441</ele>
        <time>2022-01-12T14:11:44Z</time>
      </trkpt>
      <trkpt lat="43.20855" lon="-0.081">
        <ele>443</ele>
        <time>2022-01-12T14:12:04Z</time>
      </trkpt>
      <trkpt lat="43.20833" lon="-0.08107">
        <ele>435</ele>
        <time>2022-01-12T14:12:34Z</time>
      </trkpt>
      <trkpt lat="43.2081" lon="-0.08114">
        <ele>437</ele>
        <time>2022-01-12T14:12:48Z</time>
      </trkpt>
      <trkpt lat="43.20788" lon="-0.08123">
        <ele>440</ele>
        <time>2022-01-12T14:13:08Z</time>
      </trkpt>
      <trkpt lat="43.20764" lon="-0.08127">
        <ele>439</ele>
        <time>2022-01-12T14:13:25Z</time>
      </trkpt>
      <trkpt lat="43.20742" lon="-0.08135">
        <ele>440</ele>
        <time>2022-01-12T14:13:39Z</time>
      </trkpt>
      <trkpt lat="43.20719" lon="-0.08137">
        <ele>438</ele>
        <time>2022-01-12T14:13:58Z</time>
      </trkpt>
      <trkpt lat="43.20696" lon="-0.08145">
        <ele>440</ele>
        <time>2022-01-12T14:14:19Z</time>
      </trkpt>
      <trkpt lat="43.20674" lon="-0.08151">
        <ele>438</ele>
        <time>2022-01-12T14:14:41Z</time>
      </trkpt>
      <trkpt lat="43.20652" lon="-0.08159">
        <ele>441</ele>
        <time>2022-01-12T14:14:58Z</time>
      </trkpt>
      <trkpt lat="43.20629" lon="-0.08163">
        <ele>443</ele>
        <time>2022-01-12T14:15:19Z</time>
      </trkpt>
      <trkpt lat="43.20607" lon="-0.08161">
        <ele>442</ele>
        <time>2022-01-12T14:15:33Z</time>
      </trkpt>
      <trkpt lat="43.20584" lon="-0.08164">
        <ele>444</ele>
        <time>2022-01-12T14:15:54Z</time>
      </trkpt>
      <trkpt lat="43.2056" lon="-0.08162">
        <ele>439</ele>
        <time>2022-01-12T14:16:11Z</time>
      </trkpt>
      <trkpt lat="43.20537" lon="-0.0816">
        <ele>438</ele>
        <time>2022-01-12T14:16:29Z</time>
      </trkpt>
      <trkpt lat="43.20514" lon="-0.08164">
        <ele>440</ele>
        <time>2022-01-12T14:16:56Z</time>
      </trkpt>
      <trkpt lat="43.20492" lon="-0.08166">
        <ele>441</ele>
        <time>2022-01-12T14:17:13Z</time>
      </trkpt>
      <trkpt lat="43.20469" lon="-0.08168">
        <ele>442</ele>
        <time>2022-01-12T14:17:34Z</time>
      </trkpt>
      <trkpt lat="43.20445" lon="-0.08172">
        <ele>443</ele>
        <time>2022-01-12T14:17:48Z</time>
      </trkpt>
      <trkpt lat="43.20422" lon="-0.08166">
        <ele>444</ele>
        <time>2022-01-12T14:18:08Z</time>
      </trkpt>
      <trkpt lat="43.20398" lon="-0.08169">
        <ele>444</ele>
        <time>2022-01-12T14:18:30Z</time>
      </trkpt>
      <trkpt lat="43.20376" lon="-0.08162">
        <ele>442</ele>
        <time>2022-01-12T14:18:46Z</time>
      </trkpt>
      <trkpt lat="43.20354" lon="-0.0817">
        <ele>442</ele>
        <time>2022-01-12T14:19:08Z</time>
      </trkpt>
      <trkpt lat="43.20331" lon="-0.08171">
        <ele>443</ele>
        <time>2022-01-12T14:19:22Z</time>
      </trkpt>
      <trkpt lat="43.20308" lon="-0.0817">
        <ele>444</ele>
        <time>2022-01-12T14:19:44Z</time>
      </trkpt>
      <trkpt lat="43.20285" lon="-0.0817">
        <ele>443</ele>
        <time>2022-01-12T14:20:01Z</time>
      </trkpt>
      <trkpt lat="43.20262" lon="-0.08174">
        <ele>444</ele>
        <time>2022-01-12T14:20:17Z</time>
      </trkpt>
      <trkpt lat="43.2024" lon="-0.08176">
        <ele>444</ele>
        <time>2022-01-12T14:20:38Z</time>
      </trkpt>
      <trkpt lat="43.20217" lon="-0.08174">
        <ele>441</ele>
        <time>2022-01-12T14:20:54Z</time>
      </trkpt>
      <trkpt lat="43.20194" lon="-0.08171">
        <ele>438</ele>
        <time>2022-01-12T14:21:15Z</time>
      </trkpt>
      <trkpt lat="43.20172" lon="-0.08168">
        <ele>438</ele>
        <time>2022-01-12T14:21:39Z</time>
      </trkpt>
      <trkpt lat="43.20149" lon="-0.08177">
        <ele>438</ele>
        <time>2022-01-12T14:21:52Z</time>
      </trkpt>
      <trkpt lat="43.20127" lon="-0.08181">
        <ele>439</ele>
        <time>2022-01-12T14:22:11Z</time>
      </trkpt>
      <trkpt lat="43.20104" lon="-0.08186">
        <ele>443</ele>
        <time>2022-01-12T14:22:28Z</time>
      </trkpt>
      <trkpt lat="43.20081" lon="-0.08188">
        <ele>447</ele>
        <time>2022-01-12T14:22:48Z</time>
      </trkpt>
      <trkpt lat="43.20057" lon="-0.08189">
        <ele>447</ele>
        <time>2022-01-12T14:23:13Z</time>
      </trkpt>
      <trkpt lat="43.20034" lon="-0.08186">
        <ele>450</ele>
        <time>2022-01-12T14:30:28Z</time>
      </trkpt>
      <trkpt lat="43.20012" lon="-0.08182">
        <ele>448</ele>
        <time>2022-01-12T14:30:49Z</time>
      </trkpt>
      <trkpt lat="43.19988" lon="-0.0818">
        <ele>449</ele>
        <time>2022-01-12T14:31:07Z</time>
      </trkpt>
      <trkpt lat="43.19966" lon="-0.08173">
        <ele>449</ele>
        <time>2022-01-12T14:31:29Z</time>
      </trkpt>
      <trkpt lat="43.19944" lon="-0.0817">
        <ele>449</ele>
        <time>2022-01-12T14:31:46Z</time>
      </trkpt>
      <trkpt lat="43.19921" lon="-0.08164">
        <ele>448</ele>
        <time>2022-01-12T14:32:04Z</time>
      </trkpt>
      <trkpt lat="43.19898" lon="-0.08158">
        <ele>448</ele>
        <time>2022-01-12T14:32:25Z</time>
      </trkpt>
      <trkpt lat="43.19875" lon="-0.08156">
        <ele>450</ele>
        <time>2022-01-12T14:32:43Z</time>
      </trkpt>
      <trkpt lat="43.19853" lon="-0.0815">
        <ele>450</ele>
        <time>2022-01-12T14:33:00Z</time>
      </trkpt>
      <trkpt lat="43.1983" lon="-0.08144">
        <ele>447</ele>
        <time>2022-01-12T14:33:17Z</time>
      </trkpt>
      <trkpt lat="43.19808" lon="-0.08152">
        <ele>448</ele>
        <time>2022-01-12T14:33:36Z</time>
      </trkpt>
      <trkpt lat="43.19784" lon="-0.08147">
        <ele>448</ele>
        <time>2022-01-12T14:33:52Z</time>
      </trkpt>
      <trkpt lat="43.19763" lon="-0.08134">
        <ele>446</ele>
        <time>2022-01-12T14:34:08Z</time>
      </trkpt>
      <trkpt lat="43.19741" lon="-0.08129">
        <ele>447</ele>
        <time>2022-01-12T14:34:29Z</time>
      </trkpt>
      <trkpt lat="43.19718" lon="-0.08129">
        <ele>447</ele>
        <time>2022-01-12T14:34:48Z</time>
      </trkpt>
      <trkpt lat="43.19695" lon="-0.08122">
        <ele>446</ele>
        <time>2022-01-12T14:35:05Z</time>
      </trkpt>
      <trkpt lat="43.19672" lon="-0.08114">
        <ele>447</ele>
        <time>2022-01-12T14:35:20Z</time>
      </trkpt>
      <trkpt lat="43.1965" lon="-0.08111">
        <ele>452</ele>
        <time>2022-01-12T14:35:40Z</time>
      </trkpt>
      <trkpt lat="43.19628" lon="-0.08103">
        <ele>454</ele>
        <time>2022-01-12T14:35:58Z</time>
      </trkpt>
      <trkpt lat="43.19605" lon="-0.081">
        <ele>452</ele>
        <time>2022-01-12T14:36:18Z</time>
      </trkpt>
      <trkpt lat="43.19582" lon="-0.08095">
        <ele>453</ele>
        <time>2022-01-12T14:36:34Z</time>
      </trkpt>
      <trkpt lat="43.19559" lon="-0.08093">
        <ele>454</ele>
        <time>2022-01-12T14:36:54Z</time>
      </trkpt>
      <trkpt lat="43.19536" lon="-0.08088">
        <ele>453</ele>
        <time>2022-01-12T14:37:15Z</time>
      </trkpt>
      <trkpt lat="43.19513" lon="-0.08084">
        <ele>453</ele>
        <time>2022-01-12T14:37:33Z</time>
      </trkpt>
      <trkpt lat="43.1949" lon="-0.08077">
        <ele>454</ele>
        <time>2022-01-12T14:37:51Z</time>
      </trkpt>
      <trkpt lat="43.19467" lon="-0.08074">
        <ele>453</ele>
        <time>2022-01-12T14:38:07Z</time>
      </trkpt>
      <trkpt lat="43.19444" lon="-0.08067">
        <ele>453</ele>
        <time>2022-01-12T14:38:28Z</time>
      </trkpt>
      <trkpt lat="43.19421" lon="-0.08066">
        <ele>454</ele>
        <time>2022-01-12T14:38:45Z</time>
      </trkpt>
      <trkpt lat="43.19398" lon="-0.0806">
        <ele>454</ele>
        <time>2022-01-12T14:39:01Z</time>
      </trkpt>
      <trkpt lat="43.19374" lon="-0.08056">
        <ele>454</ele>
        <time>2022-01-12T14:39:21Z</time>
      </trkpt>
      <trkpt lat="43.1935" lon="-0.08051">
        <ele>458</ele>
        <time>2022-01-12T14:39:39Z</time>
      </trkpt>
      <trkpt lat="43.19328" lon="-0.08046">
        <ele>455</ele>
        <time>2022-01-12T14:40:00Z</time>
      </trkpt>
      <trkpt lat="43.19306" lon="-0.08044">
        <ele>452</ele>
        <time>2022-01-12T14:40:19Z</time>
      </trkpt>
      <trkpt lat="43.19283" lon="-0.08037">
        <ele>456</ele>
        <time>2022-01-12T14:41:00Z</time>
      </trkpt>
      <trkpt lat="43.19261" lon="-0.08034">
        <ele>455</ele>
        <time>2022-01-12T14:41:23Z</time>
      </trkpt>
      <trkpt lat="43.19238" lon="-0.08033">
        <ele>454</ele>
        <time>2022-01-12T14:41:39Z</time>
      </trkpt>
      <trkpt lat="43.19215" lon="-0.08025">
        <ele>459</ele>
        <time>2022-01-12T14:41:59Z</time>
      </trkpt>
      <trkpt lat="43.19192" lon="-0.08022">
        <ele>453</ele>
        <time>2022-01-12T14:42:19Z</time>
      </trkpt>
      <trkpt lat="43.19169" lon="-0.08019">
        <ele>456</ele>
        <time>2022-01-12T14:42:34Z</time>
      </trkpt>
      <trkpt lat="43.19146" lon="-0.08011">
        <ele>455</ele>
        <time>2022-01-12T14:42:54Z</time>
      </trkpt>
      <trkpt lat="43.19123" lon="-0.08007">
        <ele>457</ele>
        <time>2022-01-12T14:43:11Z</time>
      </trkpt>
      <trkpt lat="43.191" lon="-0.08005">
        <ele>457</ele>
        <time>2022-01-12T14:43:29Z</time>
      </trkpt>
      <trkpt lat="43.19077" lon="-0.07996">
        <ele>459</ele>
        <time>2022-01-12T14:43:49Z</time>
      </trkpt>
      <trkpt lat="43.19056" lon="-0.07983">
        <ele>457</ele>
        <time>2022-01-12T14:44:07Z</time>
      </trkpt>
      <trkpt lat="43.19034" lon="-0.07979">
        <ele>462</ele>
        <time>2022-01-12T14:44:25Z</time>
      </trkpt>
      <trkpt lat="43.19013" lon="-0.07965">
        <ele>460</ele>
        <time>2022-01-12T14:44:40Z</time>
      </trkpt>
      <trkpt lat="43.18991" lon="-0.07955">
        <ele>460</ele>
        <time>2022-01-12T14:45:02Z</time>
      </trkpt>
      <trkpt lat="43.18971" lon="-0.07941">
        <ele>457</ele>
        <time>2022-01-12T14:45:27Z</time>
      </trkpt>
      <trkpt lat="43.18949" lon="-0.07927">
        <ele>454</ele>
        <time>2022-01-12T14:45:48Z</time>
      </trkpt>
      <trkpt lat="43.18929" lon="-0.07911">
        <ele>458</ele>
        <time>2022-01-12T14:46:09Z</time>
      </trkpt>
      <trkpt lat="43.18926" lon="-0.07943">
        <ele>462</ele>
        <time>2022-01-12T14:51:00Z</time>
      </trkpt>
      <trkpt lat="43.18917" lon="-0.07971">
        <ele>459</ele>
        <time>2022-01-12T14:51:18Z</time>
      </trkpt>
      <trkpt lat="43.18912" lon="-0.08001">
        <ele>452</ele>
        <time>2022-01-12T14:51:33Z</time>
      </trkpt>
      <trkpt lat="43.18906" lon="-0.08033">
        <ele>451</ele>
        <time>2022-01-12T14:51:53Z</time>
      </trkpt>
      <trkpt lat="43.18895" lon="-0.08061">
        <ele>449</ele>
        <time>2022-01-12T14:52:10Z</time>
      </trkpt>
      <trkpt lat="43.18888" lon="-0.08091">
        <ele>449</ele>
        <time>2022-01-12T14:52:29Z</time>
      </trkpt>
      <trkpt lat="43.18883" lon="-0.08122">
        <ele>451</ele>
        <time>2022-01-12T14:52:47Z</time>
      </trkpt>
      <trkpt lat="43.18874" lon="-0.0815">
        <ele>452</ele>
        <time>2022-01-12T14:53:02Z</time>
      </trkpt>
      <trkpt lat="43.18868" lon="-0.0818">
        <ele>452</ele>
        <time>2022-01-12T14:53:19Z</time>
      </trkpt>
      <trkpt lat="43.18859" lon="-0.08208">
        <ele>455</ele>
        <time>2022-01-12T14:53:36Z</time>
      </trkpt>
      <trkpt lat="43.18874" lon="-0.08231">
        <ele>461</ele>
        <time>2022-01-12T14:54:23Z</time>
      </trkpt>
      <trkpt lat="43.18897" lon="-0.0824">
        <ele>465</ele>
        <time>2022-01-12T14:55:11Z</time>
      </trkpt>
      <trkpt lat="43.18916" lon="-0.08255">
        <ele>465</ele>
        <time>2022-01-12T14:55:28Z</time>
      </trkpt>
      <trkpt lat="43.18937" lon="-0.08269">
        <ele>464</ele>
        <time>2022-01-12T14:55:48Z</time>
      </trkpt>
      <trkpt lat="43.18958" lon="-0.08285">
        <ele>466</ele>
        <time>2022-01-12T14:56:05Z</time>
      </trkpt>
      <trkpt lat="43.18977" lon="-0.08302">
        <ele>463</ele>
        <time>2022-01-12T14:56:26Z</time>
      </trkpt>
      <trkpt lat="43.18996" lon="-0.08318">
        <ele>461</ele>
        <time>2022-01-12T14:56:51Z</time>
      </trkpt>
      <trkpt lat="43.19016" lon="-0.08334">
        <ele>461</ele>
        <time>2022-01-12T14:57:10Z</time>
      </trkpt>
      <trkpt lat="43.19038" lon="-0.08347">
        <ele>459</ele>
        <time>2022-01-12T14:57:26Z</time>
      </trkpt>
      <trkpt lat="43.19058" lon="-0.08362">
        <ele>456</ele>
        <time>2022-01-12T14:57:45Z</time>
      </trkpt>
      <trkpt lat="43.19079" lon="-0.08378">
        <ele>457</ele>
        <time>2022-01-12T14:58:05Z</time>
      </trkpt>
      <trkpt lat="43.19101" lon="-0.0838">
        <ele>462</ele>
        <time>2022-01-12T14:58:21Z</time>
      </trkpt>
      <trkpt lat="43.19122" lon="-0.08392">
        <ele>468</ele>
        <time>2022-01-12T14:58:43Z</time>
      </trkpt>
      <trkpt lat="43.19144" lon="-0.08405">
        <ele>470</ele>
        <time>2022-01-12T14:58:57Z</time>
      </trkpt>
      <trkpt lat="43.19162" lon="-0.08426">
        <ele>469</ele>
        <time>2022-01-12T14:59:31Z</time>
      </trkpt>
      <trkpt lat="43.19181" lon="-0.08444">
        <ele>463</ele>
        <time>2022-01-12T14:59:58Z</time>
      </trkpt>
      <trkpt lat="43.19202" lon="-0.08457">
        <ele>465</ele>
        <time>2022-01-12T15:00:08Z</time>
      </trkpt>
      <trkpt lat="43.19222" lon="-0.08474">
        <ele>465</ele>
        <time>2022-01-12T15:00:24Z</time>
      </trkpt>
      <trkpt lat="43.19239" lon="-0.08497">
        <ele>465</ele>
        <time>2022-01-12T15:00:42Z</time>
      </trkpt>
      <trkpt lat="43.1926" lon="-0.08512">
        <ele>466</ele>
        <time>2022-01-12T15:00:56Z</time>
      </trkpt>
      <trkpt lat="43.19279" lon="-0.08531">
        <ele>467</ele>
        <time>2022-01-12T15:01:16Z</time>
      </trkpt>
      <trkpt lat="43.19295" lon="-0.08553">
        <ele>465</ele>
        <time>2022-01-12T15:01:30Z</time>
      </trkpt>
      <trkpt lat="43.19309" lon="-0.08578">
        <ele>460</ele>
        <time>2022-01-12T15:01:48Z</time>
      </trkpt>
      <trkpt lat="43.19328" lon="-0.08598">
        <ele>454</ele>
        <time>2022-01-12T15:02:09Z</time>
      </trkpt>
      <trkpt lat="43.19346" lon="-0.08617">
        <ele>451</ele>
        <time>2022-01-12T15:02:27Z</time>
      </trkpt>
      <trkpt lat="43.19367" lon="-0.0863">
        <ele>452</ele>
        <time>2022-01-12T15:02:43Z</time>
      </trkpt>
      <trkpt lat="43.19386" lon="-0.08648">
        <ele>452</ele>
        <time>2022-01-12T15:03:00Z</time>
      </trkpt>
      <trkpt lat="43.19407" lon="-0.0866">
        <ele>452</ele>
        <time>2022-01-12T15:03:19Z</time>
      </trkpt>
      <trkpt lat="43.19428" lon="-0.08679">
        <ele>448</ele>
        <time>2022-01-12T15:07:12Z</time>
      </trkpt>
      <trkpt lat="43.1945" lon="-0.08687">
        <ele>452</ele>
        <time>2022-01-12T15:07:31Z</time>
      </trkpt>
      <trkpt lat="43.19471" lon="-0.087">
        <ele>455</ele>
        <time>2022-01-12T15:07:48Z</time>
      </trkpt>
      <trkpt lat="43.19491" lon="-0.08715">
        <ele>453</ele>
        <time>2022-01-12T15:08:06Z</time>
      </trkpt>
      <trkpt lat="43.19513" lon="-0.08728">
        <ele>454</ele>
        <time>2022-01-12T15:08:23Z</time>
      </trkpt>
      <trkpt lat="43.19534" lon="-0.0874">
        <ele>453</ele>
        <time>2022-01-12T15:08:38Z</time>
      </trkpt>
      <trkpt lat="43.19557" lon="-0.0875">
        <ele>457</ele>
        <time>2022-01-12T15:09:00Z</time>
      </trkpt>
      <trkpt lat="43.19576" lon="-0.08765">
        <ele>457</ele>
        <time>2022-01-12T15:09:17Z</time>
      </trkpt>
      <trkpt lat="43.19597" lon="-0.08781">
        <ele>458</ele>
        <time>2022-01-12T15:09:33Z</time>
      </trkpt>
      <trkpt lat="43.19617" lon="-0.08796">
        <ele>456</ele>
        <time>2022-01-12T15:09:54Z</time>
      </trkpt>
      <trkpt lat="43.19638" lon="-0.08811">
        <ele>455</ele>
        <time>2022-01-12T15:10:07Z</time>
      </trkpt>
      <trkpt lat="43.19658" lon="-0.08825">
        <ele>453</ele>
        <time>2022-01-12T15:10:24Z</time>
      </trkpt>
      <trkpt lat="43.19679" lon="-0.0884">
        <ele>456</ele>
        <time>2022-01-12T15:10:43Z</time>
      </trkpt>
      <trkpt lat="43.19699" lon="-0.08855">
        <ele>450</ele>
        <time>2022-01-12T15:11:00Z</time>
      </trkpt>
      <trkpt lat="43.19721" lon="-0.08866">
        <ele>452</ele>
        <time>2022-01-12T15:11:17Z</time>
      </trkpt>
      <trkpt lat="43.1974" lon="-0.08884">
        <ele>450</ele>
        <time>2022-01-12T15:11:34Z</time>
      </trkpt>
      <trkpt lat="43.19763" lon="-0.08893">
        <ele>450</ele>
        <time>2022-01-12T15:11:49Z</time>
      </trkpt>
      <trkpt lat="43.19783" lon="-0.08911">
        <ele>453</ele>
        <time>2022-01-12T15:12:10Z</time>
      </trkpt>
      <trkpt lat="43.19803" lon="-0.08925">
        <ele>453</ele>
        <time>2022-01-12T15:12:24Z</time>
      </trkpt>
      <trkpt lat="43.19825" lon="-0.08938">
        <ele>452</ele>
        <time>2022-01-12T15:12:42Z</time>
      </trkpt>
      <trkpt lat="43.19846" lon="-0.08951">
        <ele>450</ele>
        <time>2022-01-12T15:12:59Z</time>
      </trkpt>
      <trkpt lat="43.19867" lon="-0.08964">
        <ele>450</ele>
        <time>2022-01-12T15:13:16Z</time>
      </trkpt>
      <trkpt lat="43.19885" lon="-0.08982">
        <ele>445</ele>
        <time>2022-01-12T15:13:35Z</time>
      </trkpt>
      <trkpt lat="43.19908" lon="-0.08993">
        <ele>449</ele>
        <time>2022-01-12T15:13:58Z</time>
      </trkpt>
      <trkpt lat="43.19928" lon="-0.09007">
        <ele>449</ele>
        <time>2022-01-12T15:14:16Z</time>
      </trkpt>
      <trkpt lat="43.19951" lon="-0.09012">
        <ele>456</ele>
        <time>2022-01-12T15:14:30Z</time>
      </trkpt>
      <trkpt lat="43.19971" lon="-0.09027">
        <ele>458</ele>
        <time>2022-01-12T15:14:46Z</time>
      </trkpt>
      <trkpt lat="43.19987" lon="-0.09049">
        <ele>456</ele>
        <time>2022-01-12T15:15:05Z</time>
      </trkpt>
      <trkpt lat="43.19988" lon="-0.0908">
        <ele>445</ele>
        <time>2022-01-12T15:15:32Z</time>
      </trkpt>
      <trkpt lat="43.19984" lon="-0.0911">
        <ele>437</ele>
        <time>2022-01-12T15:16:02Z</time>
      </trkpt>
      <trkpt lat="43.19993" lon="-0.09076">
        <ele>455</ele>
        <time>2022-01-12T15:17:04Z</time>
      </trkpt>
      <trkpt lat="43.19982" lon="-0.0913">
        <ele>453</ele>
        <time>2022-01-12T15:17:08Z</time>
      </trkpt>
      <trkpt lat="43.19991" lon="-0.09161">
        <ele>455</ele>
        <time>2022-01-12T15:17:25Z</time>
      </trkpt>
      <trkpt lat="43.19973" lon="-0.09182">
        <ele>455</ele>
        <time>2022-01-12T15:17:42Z</time>
      </trkpt>
    </trkseg>
  </trk>
</gpx>